createdAt,value
2023-01-29T00:01:56.156Z,92.99
2023-01-29T00:04:23.010Z,93.25
2023-01-29T00:06:49.638Z,92.92
2023-01-29T00:09:16.286Z,92.90
2023-01-29T00:11:42.944Z,92.97
2023-01-29T00:14:09.819Z,92.61
2023-01-29T00:16:36.445Z,92.29
2023-01-29T00:19:04.134Z,91.73
2023-01-29T00:21:32.195Z,92.12
2023-01-29T00:23:59.767Z,92.38
2023-01-29T00:26:27.247Z,91.80
2023-01-29T00:28:53.909Z,92.43
2023-01-29T00:31:23.028Z,92.84
2023-01-29T00:33:50.531Z,92.84
2023-01-29T00:36:18.998Z,92.87
2023-01-29T00:38:54.492Z,92.10
2023-01-29T00:41:40.800Z,92.96
2023-01-29T00:44:26.287Z,93.27
2023-01-29T00:46:52.892Z,93.48
2023-01-29T00:49:19.440Z,93.77
2023-01-29T00:52:05.978Z,93.38
2023-01-29T00:54:33.251Z,93.87
2023-01-29T00:57:00.256Z,93.86
2023-01-29T00:59:27.031Z,93.81
2023-01-29T01:02:11.797Z,93.90
2023-01-29T01:04:38.477Z,94.52
2023-01-29T01:07:05.227Z,94.68
2023-01-29T01:09:50.072Z,94.76
2023-01-29T01:12:16.559Z,94.62
2023-01-29T01:14:43.330Z,94.83
2023-01-29T01:17:09.842Z,94.46
2023-01-29T01:19:36.509Z,94.67
2023-01-29T01:22:04.946Z,94.49
2023-01-29T01:24:32.154Z,93.52
2023-01-29T01:26:58.822Z,93.32
2023-01-29T01:29:25.343Z,93.48
2023-01-29T01:31:53.844Z,93.12
2023-01-29T01:34:22.066Z,94.13
2023-01-29T01:36:48.926Z,94.47
2023-01-29T01:39:15.670Z,94.79
2023-01-29T01:41:42.180Z,94.86
2023-01-29T01:44:47.386Z,94.99
2023-01-29T01:47:15.620Z,95.02
2023-01-29T01:49:43.412Z,95.02
2023-01-29T01:52:11.919Z,95.40
2023-01-29T01:54:38.489Z,95.70
2023-01-29T01:57:11.604Z,95.99
2023-01-29T01:59:40.393Z,95.70
2023-01-29T02:02:26.426Z,95.94
2023-01-29T02:05:11.753Z,96.35
2023-01-29T02:08:02.776Z,95.60
2023-01-29T02:10:31.854Z,95.98
2023-01-29T02:12:58.399Z,95.63
2023-01-29T02:15:24.916Z,95.49
2023-01-29T02:17:51.459Z,95.46
2023-01-29T02:20:26.605Z,95.37
2023-01-29T02:23:11.152Z,95.51
2023-01-29T02:26:15.389Z,95.61
2023-01-29T02:28:53.695Z,95.09
2023-01-29T02:31:38.208Z,95.61
2023-01-29T02:35:22.250Z,95.58
2023-01-29T02:38:23.751Z,95.48
2023-01-29T02:41:03.805Z,95.29
2023-01-29T02:43:54.931Z,94.91
2023-01-29T02:46:28.006Z,93.96
2023-01-29T02:49:06.748Z,93.57
2023-01-29T02:51:59.689Z,93.16
2023-01-29T02:54:47.659Z,92.60
2023-01-29T02:57:29.065Z,92.47
2023-01-29T03:00:27.651Z,92.88
2023-01-29T03:03:07.457Z,93.86
2023-01-29T03:05:45.706Z,93.79
2023-01-29T03:08:18.420Z,93.76
2023-01-29T03:10:57.638Z,94.35
2023-01-29T03:13:33.249Z,94.51
2023-01-29T03:16:12.140Z,95.04
2023-01-29T03:18:48.685Z,95.07
2023-01-29T03:21:43.213Z,95.34
2023-01-29T03:24:31.918Z,95.49
2023-01-29T03:27:23.159Z,95.26
2023-01-29T03:30:11.619Z,95.37
2023-01-29T03:32:38.660Z,95.37
2023-01-29T03:35:08.356Z,95.39
2023-01-29T03:37:45.453Z,95.37
2023-01-29T03:40:13.383Z,95.69
2023-01-29T03:42:49.245Z,95.88
2023-01-29T03:45:23.861Z,96.06
2023-01-29T03:48:13.161Z,96.04
2023-01-29T03:51:08.956Z,95.86
2023-01-29T03:53:58.537Z,95.96
2023-01-29T03:56:33.904Z,96.29
2023-01-29T03:59:18.518Z,96.56
2023-01-29T04:02:27.917Z,96.90
2023-01-29T04:05:02.720Z,96.54
2023-01-29T04:07:33.345Z,96.68
2023-01-29T04:10:09.789Z,96.65
2023-01-29T04:12:43.126Z,96.80
2023-01-29T04:15:15.373Z,96.94
2023-01-29T04:17:47.569Z,97.17
2023-01-29T04:20:14.209Z,97.11
2023-01-29T04:22:45.166Z,97.24
2023-01-29T04:25:16.219Z,97.52
2023-01-29T04:28:01.782Z,98.06
2023-01-29T04:30:43.603Z,97.68
2023-01-29T04:33:57.812Z,97.99
2023-01-29T04:36:45.453Z,98.43
2023-01-29T04:39:19.111Z,98.36
2023-01-29T04:42:27.213Z,98.11
2023-01-29T04:45:24.637Z,98.21
2023-01-29T04:48:01.115Z,98.42
2023-01-29T04:50:49.320Z,98.29
2023-01-29T04:53:23.083Z,98.26
2023-01-29T04:56:02.606Z,98.26
2023-01-29T04:58:33.312Z,98.18
2023-01-29T05:01:02.943Z,98.29
2023-01-29T05:03:31.303Z,98.24
2023-01-29T05:06:00.672Z,98.27
2023-01-29T05:08:29.857Z,98.48
2023-01-29T05:10:58.869Z,98.75
2023-01-29T05:13:28.161Z,98.93
2023-01-29T05:16:02.098Z,98.93
2023-01-29T05:18:30.514Z,98.99
2023-01-29T05:20:59.908Z,98.95
2023-01-29T05:23:26.463Z,98.70
2023-01-29T05:25:53.151Z,98.98
2023-01-29T05:28:19.713Z,98.99
2023-01-29T05:30:49.029Z,98.91
2023-01-29T05:33:30.374Z,98.24
2023-01-29T05:35:59.594Z,97.88
2023-01-29T05:38:26.266Z,97.64
2023-01-29T05:40:52.748Z,97.40
2023-01-29T05:43:24.151Z,97.47
2023-01-29T05:45:55.597Z,97.53
2023-01-29T05:48:22.511Z,97.30
2023-01-29T05:50:49.176Z,97.20
2023-01-29T05:53:15.645Z,97.28
2023-01-29T05:55:46.507Z,96.91
2023-01-29T05:58:12.998Z,97.04
2023-01-29T06:00:40.169Z,97.22
2023-01-29T06:03:06.961Z,96.85
2023-01-29T06:05:33.544Z,97.29
2023-01-29T06:08:00.008Z,97.37
2023-01-29T06:10:26.610Z,97.32
2023-01-29T06:12:53.158Z,97.41
2023-01-29T06:15:19.767Z,97.02
2023-01-29T06:17:46.321Z,96.87
2023-01-29T06:20:13.113Z,97.00
2023-01-29T06:22:39.634Z,96.69
2023-01-29T06:25:06.843Z,96.84
2023-01-29T06:27:33.388Z,96.81
2023-01-29T06:29:59.799Z,96.87
2023-01-29T06:32:26.374Z,97.08
2023-01-29T06:34:53.227Z,96.89
2023-01-29T06:37:19.719Z,96.82
2023-01-29T06:39:46.162Z,97.28
2023-01-29T06:42:12.679Z,97.10
2023-01-29T06:44:39.163Z,97.25
2023-01-29T06:47:05.646Z,97.16
2023-01-29T06:49:32.543Z,97.43
2023-01-29T06:51:58.979Z,97.56
2023-01-29T06:54:25.494Z,96.84
2023-01-29T06:56:52.326Z,96.89
2023-01-29T06:59:18.798Z,96.81
2023-01-29T07:01:45.400Z,97.01
2023-01-29T07:04:11.956Z,97.20
2023-01-29T07:06:38.471Z,97.06
2023-01-29T07:09:05.244Z,97.26
2023-01-29T07:11:34.039Z,97.02
2023-01-29T07:14:00.644Z,97.08
2023-01-29T07:16:27.273Z,97.00
2023-01-29T07:18:53.911Z,96.92
2023-01-29T07:21:20.498Z,96.93
2023-01-29T07:23:47.310Z,96.99
2023-01-29T07:26:13.865Z,96.81
2023-01-29T07:28:40.902Z,96.49
2023-01-29T07:31:08.424Z,96.46
2023-01-29T07:33:35.051Z,96.21
2023-01-29T07:36:07.191Z,96.09
2023-01-29T07:38:33.744Z,95.88
2023-01-29T07:41:01.358Z,95.79
2023-01-29T07:43:30.221Z,95.33
2023-01-29T07:45:56.937Z,95.58
2023-01-29T07:48:23.674Z,95.42
2023-01-29T07:50:56.634Z,95.31
2023-01-29T07:53:23.755Z,95.42
2023-01-29T07:55:50.640Z,95.33
2023-01-29T07:58:17.263Z,95.27
2023-01-29T08:00:44.291Z,95.02
2023-01-29T08:03:16.833Z,94.96
2023-01-29T08:05:46.752Z,94.85
2023-01-29T08:08:13.638Z,94.67
2023-01-29T08:10:40.763Z,94.68
2023-01-29T08:13:07.427Z,94.38
2023-01-29T08:15:37.184Z,94.77
2023-01-29T08:18:05.391Z,94.54
2023-01-29T08:20:31.953Z,94.56
2023-01-29T08:23:03.504Z,93.97
2023-01-29T08:25:30.277Z,93.92
2023-01-29T08:28:00.718Z,93.90
2023-01-29T08:30:33.319Z,93.76
2023-01-29T08:32:59.894Z,93.56
2023-01-29T08:35:26.599Z,93.28
2023-01-29T08:37:59.436Z,93.53
2023-01-29T08:40:27.624Z,93.59
2023-01-29T08:43:02.739Z,93.54
2023-01-29T08:45:31.203Z,93.34
2023-01-29T08:47:57.819Z,93.65
2023-01-29T08:50:24.537Z,93.42
2023-01-29T08:52:51.298Z,93.39
2023-01-29T08:55:18.207Z,93.64
2023-01-29T08:57:45.006Z,93.89
2023-01-29T09:00:12.148Z,93.83
2023-01-29T09:02:38.662Z,94.11
2023-01-29T09:05:05.961Z,93.77
2023-01-29T09:07:32.520Z,93.27
2023-01-29T09:09:59.067Z,92.98
2023-01-29T09:12:25.709Z,93.43
2023-01-29T09:14:52.250Z,93.23
2023-01-29T09:17:18.789Z,92.75
2023-01-29T09:19:45.420Z,92.67
2023-01-29T09:22:12.036Z,92.03
2023-01-29T09:24:38.879Z,92.37
2023-01-29T09:27:06.205Z,92.93
2023-01-29T09:29:35.682Z,93.29
2023-01-29T09:32:03.677Z,92.98
2023-01-29T09:34:30.196Z,93.09
2023-01-29T09:36:56.766Z,93.06
2023-01-29T09:39:23.315Z,93.60
2023-01-29T09:41:58.485Z,93.18
2023-01-29T09:44:47.092Z,92.85
2023-01-29T09:47:17.946Z,92.69
2023-01-29T09:49:53.621Z,92.27
2023-01-29T09:52:31.612Z,92.15
2023-01-29T09:55:04.430Z,91.77
2023-01-29T09:57:41.168Z,91.44
2023-01-29T10:00:20.492Z,91.61
2023-01-29T10:03:15.246Z,90.52
2023-01-29T10:05:53.733Z,89.69
2023-01-29T10:08:39.127Z,89.71
2023-01-29T10:11:39.926Z,88.85
2023-01-29T10:14:37.866Z,88.60
2023-01-29T10:17:10.161Z,88.55
2023-01-29T10:20:01.295Z,88.93
2023-01-29T10:22:33.684Z,88.00
2023-01-29T10:25:18.417Z,88.61
2023-01-29T10:27:53.023Z,88.14
2023-01-29T10:30:28.819Z,88.65
2023-01-29T10:32:59.188Z,89.04
2023-01-29T10:35:50.831Z,89.26
2023-01-29T10:38:38.464Z,89.44
2023-01-29T10:41:11.092Z,89.38
2023-01-29T10:43:58.163Z,90.25
2023-01-29T10:47:08.660Z,90.76
2023-01-29T10:49:38.984Z,90.75
2023-01-29T10:52:26.333Z,90.15
2023-01-29T10:55:19.704Z,90.02
2023-01-29T10:58:08.015Z,89.90
2023-01-29T11:00:40.312Z,90.02
2023-01-29T11:03:28.332Z,89.89
2023-01-29T11:06:24.195Z,88.86
2023-01-29T11:08:59.907Z,89.01
2023-01-29T11:11:55.225Z,88.89
2023-01-29T11:14:27.298Z,89.12
2023-01-29T11:16:54.079Z,88.65
2023-01-29T11:19:40.298Z,88.71
2023-01-29T11:22:16.007Z,88.20
2023-01-29T11:24:43.154Z,88.20
2023-01-29T11:27:25.785Z,88.47
2023-01-29T11:29:55.884Z,87.84
2023-01-29T11:32:22.384Z,88.03
2023-01-29T11:35:06.048Z,88.39
2023-01-29T11:37:41.197Z,87.98
2023-01-29T11:40:35.757Z,87.76
2023-01-29T11:43:22.922Z,87.30
2023-01-29T11:45:53.267Z,87.63
2023-01-29T11:48:22.990Z,87.43
2023-01-29T11:51:10.194Z,87.11
2023-01-29T11:53:40.733Z,86.69
2023-01-29T11:56:20.167Z,86.80
2023-01-29T11:58:49.114Z,85.78
2023-01-29T12:01:23.440Z,86.32
2023-01-29T12:03:53.908Z,85.14
2023-01-29T12:06:23.860Z,85.00
2023-01-29T12:08:59.614Z,85.35
2023-01-29T12:11:33.337Z,85.65
2023-01-29T12:14:02.400Z,85.66
2023-01-29T12:16:36.667Z,85.88
2023-01-29T12:19:16.502Z,86.06
2023-01-29T12:22:22.397Z,85.97
2023-01-29T12:25:20.626Z,86.39
2023-01-29T12:27:56.109Z,86.26
2023-01-29T12:30:29.329Z,86.34
2023-01-29T12:33:14.366Z,85.84
2023-01-29T12:35:50.119Z,85.88
2023-01-29T12:38:19.513Z,85.82
2023-01-29T12:40:55.217Z,85.81
2023-01-29T12:43:36.167Z,85.89
2023-01-29T12:46:03.254Z,85.30
2023-01-29T12:48:41.913Z,84.33
2023-01-29T12:51:18.972Z,84.12
2023-01-29T12:54:09.086Z,83.50
2023-01-29T12:56:48.014Z,83.10
2023-01-29T12:59:17.435Z,83.09
2023-01-29T13:01:58.091Z,82.89
2023-01-29T13:04:36.004Z,83.39
2023-01-29T13:07:25.952Z,83.33
2023-01-29T13:09:59.056Z,83.68
2023-01-29T13:12:25.868Z,83.41
2023-01-29T13:14:57.641Z,83.25
2023-01-29T13:17:36.416Z,82.92
2023-01-29T13:20:16.167Z,82.94
2023-01-29T13:22:44.685Z,82.25
2023-01-29T13:25:19.554Z,82.05
2023-01-29T13:27:47.804Z,81.27
2023-01-29T13:30:29.116Z,81.11
2023-01-29T13:33:09.126Z,80.72
2023-01-29T13:35:42.786Z,80.82
2023-01-29T13:38:33.371Z,80.41
2023-01-29T13:41:10.372Z,80.40
2023-01-29T13:43:40.279Z,80.71
2023-01-29T13:46:17.694Z,80.41
2023-01-29T13:48:48.427Z,80.16
2023-01-29T13:51:22.733Z,79.96
2023-01-29T13:54:18.176Z,79.78
2023-01-29T13:56:59.179Z,79.08
2023-01-29T13:59:51.949Z,79.85
2023-01-29T14:02:29.752Z,79.44
2023-01-29T14:05:31.485Z,79.63
2023-01-29T14:08:01.720Z,79.13
2023-01-29T14:10:34.168Z,78.41
2023-01-29T14:13:03.769Z,78.75
2023-01-29T14:15:33.605Z,78.92
2023-01-29T14:18:05.905Z,79.57
2023-01-29T14:21:05.972Z,79.56
2023-01-29T14:23:41.228Z,79.15
2023-01-29T14:26:34.415Z,79.22
2023-01-29T14:29:25.445Z,79.13
2023-01-29T14:32:00.598Z,79.42
2023-01-29T14:34:34.075Z,79.12
2023-01-29T14:37:29.754Z,79.29
2023-01-29T14:40:07.888Z,79.92
2023-01-29T14:42:44.049Z,79.80
2023-01-29T14:45:22.406Z,80.12
2023-01-29T14:47:48.838Z,80.24
2023-01-29T14:50:34.664Z,80.35
2023-01-29T14:53:34.182Z,80.61
2023-01-29T14:56:19.190Z,80.69
2023-01-29T14:58:52.441Z,80.74
2023-01-29T15:01:21.391Z,80.94
2023-01-29T15:03:53.835Z,80.87
2023-01-29T15:06:45.909Z,80.91
2023-01-29T15:09:15.203Z,81.40
2023-01-29T15:12:03.387Z,81.31
2023-01-29T15:14:41.981Z,81.19
2023-01-29T15:17:18.619Z,81.16
2023-01-29T15:19:50.506Z,80.96
2023-01-29T15:22:19.858Z,81.21
2023-01-29T15:25:01.568Z,80.49
2023-01-29T15:27:29.051Z,80.24
2023-01-29T15:30:02.018Z,80.21
2023-01-29T15:32:35.547Z,80.16
2023-01-29T15:35:08.502Z,79.95
2023-01-29T15:37:36.432Z,80.34
2023-01-29T15:40:06.916Z,80.33
2023-01-29T15:42:48.523Z,80.36
2023-01-29T15:45:35.068Z,80.05
2023-01-29T15:48:13.941Z,80.15
2023-01-29T15:50:42.271Z,79.73
2023-01-29T15:53:15.814Z,79.35
2023-01-29T15:55:43.349Z,79.55
2023-01-29T15:58:17.892Z,79.85
2023-01-29T16:00:53.071Z,79.21
2023-01-29T16:03:23.140Z,79.81
2023-01-29T16:05:51.651Z,79.53
2023-01-29T16:08:20.743Z,79.24
2023-01-29T16:10:52.615Z,79.64
2023-01-29T16:13:23.031Z,79.63
2023-01-29T16:16:01.489Z,79.32
2023-01-29T16:18:39.487Z,79.70
2023-01-29T16:21:24.505Z,80.08
2023-01-29T16:23:55.642Z,79.84
2023-01-29T16:26:33.090Z,79.96
2023-01-29T16:29:07.221Z,80.23
2023-01-29T16:31:35.580Z,79.99
2023-01-29T16:34:09.144Z,80.20
2023-01-29T16:36:36.240Z,80.41
2023-01-29T16:39:13.058Z,80.77
2023-01-29T16:41:39.756Z,80.99
2023-01-29T16:44:21.412Z,80.82
2023-01-29T16:46:51.131Z,81.07
2023-01-29T16:49:40.737Z,81.04
2023-01-29T16:52:28.295Z,81.12
2023-01-29T16:55:14.342Z,81.19
2023-01-29T16:57:47.665Z,80.89
2023-01-29T17:00:22.177Z,80.91
2023-01-29T17:02:52.516Z,81.18
2023-01-29T17:05:35.017Z,81.19
2023-01-29T17:08:02.590Z,80.71
2023-01-29T17:10:30.571Z,80.63
2023-01-29T17:12:59.063Z,80.55
2023-01-29T17:15:46.182Z,80.60
2023-01-29T17:18:18.804Z,80.81
2023-01-29T17:20:45.399Z,80.55
2023-01-29T17:23:12.027Z,80.34
2023-01-29T17:25:38.919Z,80.17
2023-01-29T17:28:05.982Z,80.23
2023-01-29T17:30:37.168Z,80.11
2023-01-29T17:33:30.077Z,80.08
2023-01-29T17:35:56.844Z,80.45
2023-01-29T17:38:26.477Z,80.42
2023-01-29T17:41:00.084Z,80.18
2023-01-29T17:43:26.626Z,80.47
2023-01-29T17:45:53.794Z,80.43
2023-01-29T17:48:25.117Z,81.05
2023-01-29T17:50:54.825Z,80.54
2023-01-29T17:53:24.847Z,80.85
2023-01-29T17:55:53.174Z,80.81
2023-01-29T17:58:19.666Z,80.42
2023-01-29T18:00:47.216Z,80.52
2023-01-29T18:03:14.117Z,80.85
2023-01-29T18:05:42.548Z,80.74
2023-01-29T18:08:22.316Z,80.90
2023-01-29T18:10:48.838Z,81.08
2023-01-29T18:13:15.397Z,81.07
2023-01-29T18:15:41.995Z,81.27
2023-01-29T18:18:14.129Z,81.71
2023-01-29T18:20:41.324Z,81.39
2023-01-29T18:23:08.541Z,81.80
2023-01-29T18:25:35.170Z,81.85
2023-01-29T18:28:02.713Z,81.97
2023-01-29T18:30:29.772Z,81.88
2023-01-29T18:32:57.568Z,82.06
2023-01-29T18:35:27.389Z,82.23
2023-01-29T18:38:03.410Z,81.89
2023-01-29T18:40:31.802Z,82.39
2023-01-29T18:43:00.908Z,82.41
2023-01-29T18:45:28.681Z,82.62
2023-01-29T18:47:56.009Z,82.80
2023-01-29T18:50:26.396Z,82.71
2023-01-29T18:52:54.380Z,82.82
2023-01-29T18:55:21.978Z,82.89
2023-01-29T18:58:26.691Z,83.00
2023-01-29T19:00:39.927Z,83.07
2023-01-29T19:03:06.509Z,82.91
2023-01-29T19:05:33.827Z,83.19
2023-01-29T19:08:00.408Z,83.16
2023-01-29T19:10:26.947Z,83.31
2023-01-29T19:12:53.445Z,83.08
2023-01-29T19:15:22.010Z,83.12
2023-01-29T19:17:51.934Z,83.22
2023-01-29T19:20:18.932Z,83.43
2023-01-29T19:22:45.546Z,83.17
2023-01-29T19:25:12.742Z,83.73
2023-01-29T19:27:39.650Z,83.26
2023-01-29T19:30:07.186Z,83.18
2023-01-29T19:32:34.594Z,83.47
2023-01-29T19:35:01.077Z,82.95
2023-01-29T19:37:30.577Z,83.27
2023-01-29T19:39:57.144Z,83.40
2023-01-29T19:42:23.876Z,83.24
2023-01-29T19:44:52.049Z,83.58
2023-01-29T19:47:18.990Z,83.67
2023-01-29T19:49:45.647Z,84.47
2023-01-29T19:52:41.423Z,84.85
2023-01-29T19:55:16.501Z,85.35
2023-01-29T19:57:43.225Z,85.90
2023-01-29T20:00:12.151Z,86.41
2023-01-29T20:02:38.789Z,86.77
2023-01-29T20:05:07.045Z,86.97
2023-01-29T20:07:35.958Z,87.08
2023-01-29T20:10:02.752Z,87.33
2023-01-29T20:12:29.958Z,87.51
2023-01-29T20:14:56.580Z,87.40
2023-01-29T20:17:23.117Z,87.34
2023-01-29T20:19:49.651Z,87.53
2023-01-29T20:22:16.158Z,87.21
2023-01-29T20:24:42.889Z,87.40
2023-01-29T20:27:10.838Z,87.67
2023-01-29T20:29:39.032Z,87.72
2023-01-29T20:32:08.731Z,87.49
2023-01-29T20:34:35.674Z,87.69
2023-01-29T20:37:02.202Z,87.71
2023-01-29T20:39:28.833Z,88.10
2023-01-29T20:41:57.268Z,88.08
2023-01-29T20:44:25.023Z,87.89
2023-01-29T20:46:51.753Z,88.05
2023-01-29T20:49:18.427Z,88.12
2023-01-29T20:51:45.739Z,88.25
2023-01-29T20:54:12.775Z,88.33
2023-01-29T20:56:45.889Z,88.20
2023-01-29T20:59:13.830Z,88.75
2023-01-29T21:01:41.309Z,88.89
2023-01-29T21:04:07.824Z,88.76
2023-01-29T21:06:34.396Z,88.69
2023-01-29T21:09:00.908Z,89.03
2023-01-29T21:11:28.559Z,88.84
2023-01-29T21:13:57.775Z,89.15
2023-01-29T21:16:26.217Z,89.04
2023-01-29T21:18:57.267Z,89.32
2023-01-29T21:21:24.117Z,89.63
2023-01-29T21:23:50.610Z,89.59
2023-01-29T21:26:17.141Z,89.79
2023-01-29T21:28:43.666Z,89.92
2023-01-29T21:31:14.565Z,90.48
2023-01-29T21:33:41.132Z,90.51
2023-01-29T21:36:10.129Z,90.82
2023-01-29T21:38:37.134Z,91.11
2023-01-29T21:41:05.907Z,91.25
2023-01-29T21:43:33.025Z,92.95
2023-01-29T21:46:05.044Z,94.13
2023-01-29T21:48:31.887Z,95.99
2023-01-29T21:50:58.406Z,96.61
2023-01-29T21:53:24.966Z,97.34
2023-01-29T21:55:51.802Z,98.08
2023-01-29T21:58:19.845Z,97.84
2023-01-29T22:00:48.807Z,97.78
2023-01-29T22:03:15.626Z,97.90
2023-01-29T22:05:42.217Z,97.05
2023-01-29T22:08:09.662Z,96.98
2023-01-29T22:10:36.634Z,97.20
2023-01-29T22:13:03.563Z,96.38
2023-01-29T22:15:30.074Z,96.08
2023-01-29T22:17:56.624Z,95.08
2023-01-29T22:20:30.025Z,95.17
2023-01-29T22:22:58.642Z,94.70
2023-01-29T22:25:25.185Z,94.72
2023-01-29T22:27:51.764Z,94.75
2023-01-29T22:30:19.109Z,94.52
2023-01-29T22:32:45.920Z,94.21
2023-01-29T22:35:12.448Z,94.71
2023-01-29T22:37:38.972Z,94.21
2023-01-29T22:40:06.308Z,94.60
2023-01-29T22:42:32.819Z,94.44
2023-01-29T22:44:59.303Z,94.89
2023-01-29T22:47:25.768Z,94.91
2023-01-29T22:49:52.455Z,95.03
2023-01-29T22:52:22.307Z,95.20
2023-01-29T22:54:48.893Z,95.34
2023-01-29T22:57:15.617Z,96.05
2023-01-29T22:59:42.153Z,96.25
2023-01-29T23:02:09.431Z,96.07
2023-01-29T23:04:35.983Z,96.42
2023-01-29T23:07:03.413Z,96.69
2023-01-29T23:09:29.916Z,97.18
2023-01-29T23:11:56.384Z,97.32
2023-01-29T23:14:22.917Z,97.44
2023-01-29T23:16:49.417Z,97.59
2023-01-29T23:19:15.940Z,97.59
2023-01-29T23:21:42.479Z,97.23
2023-01-29T23:24:09.641Z,97.51
2023-01-29T23:26:54.986Z,97.23
2023-01-29T23:29:21.670Z,97.52
2023-01-29T23:31:48.275Z,97.27
2023-01-29T23:34:15.202Z,97.32
2023-01-29T23:36:42.229Z,97.46
2023-01-29T23:39:09.128Z,97.40
2023-01-29T23:41:35.915Z,97.70
2023-01-29T23:44:02.505Z,98.09
2023-01-29T23:46:29.011Z,97.97
2023-01-29T23:48:55.693Z,98.49
2023-01-29T23:51:22.341Z,98.62
2023-01-29T23:53:48.867Z,98.35
2023-01-29T23:56:15.406Z,98.52
2023-01-29T23:58:41.994Z,99.14
